KCZL

Tom B David Field Airport

Calhoun, Georgia, USA
METAR KCZL 180235Z AUTO 00000KT 2 1/2SM BR 07/07 A3020 RMK AO2 SKY OBSCURED T00650065
Observed Flight Rules
Dec-18 @ 02:35 UTC (35 minutes ago)
Wind Visibility Conditions
Calm 2 1/2 miles
  • Mist
Temperatures Readings
Current 7°C / 45°F
Dewpoint 7°C / 45°F
Humidity 100%
Altimeter 30.2" Hg
Pressure 1023 hPa
Elevation 195
METAR KCZL 180235Z AUTO 00000KT 2 1/2SM BR 07/07 A3020 RMK AO2 SKY OBSCURED T00650065
Observed Flight Rules
Dec-18 @ 02:35 UTC
(35 minutes ago)
Wind Visibility
Calm 2 1/2 miles
Conditions
  • Mist
Temperature Dewpoint
7°C / 45°F 7°C / 45°F
Humidity Altimeter Pressure
100% 30.2" Hg 1023 hPa